createdAt,value
2022-08-18T00:01:48.533Z,52.97
2022-08-18T00:04:35.860Z,54.57
2022-08-18T00:07:03.861Z,52.70
2022-08-18T00:09:32.718Z,53.30
2022-08-18T00:12:02.163Z,55.20
2022-08-18T00:14:29.076Z,59.17
2022-08-18T00:16:55.893Z,60.80
2022-08-18T00:19:45.529Z,57.13
2022-08-18T00:22:14.578Z,59.77
2022-08-18T00:24:47.920Z,60.33
2022-08-18T00:27:21.687Z,60.17
2022-08-18T00:29:49.155Z,61.77
2022-08-18T00:32:19.238Z,64.67
2022-08-18T00:34:46.056Z,68.43
2022-08-18T00:37:12.834Z,68.07
2022-08-18T00:39:43.538Z,69.40
2022-08-18T00:42:27.756Z,68.67
2022-08-18T00:45:01.745Z,72.30
2022-08-18T00:47:41.024Z,72.23
2022-08-18T00:50:22.646Z,71.87
2022-08-18T00:53:36.014Z,74.57
2022-08-18T00:56:16.576Z,73.07
2022-08-18T00:59:09.222Z,76.80
2022-08-18T01:01:36.637Z,76.77
2022-08-18T01:04:11.665Z,75.00
2022-08-18T01:06:56.836Z,72.73
2022-08-18T01:09:23.815Z,78.43
2022-08-18T01:11:51.434Z,83.80
2022-08-18T01:14:18.941Z,82.63
2022-08-18T01:17:06.028Z,86.20
2022-08-18T01:19:52.435Z,79.87
2022-08-18T01:22:32.956Z,77.07
2022-08-18T01:25:19.762Z,77.00
2022-08-18T01:27:46.939Z,76.17
2022-08-18T01:30:18.044Z,74.93
2022-08-18T01:32:48.548Z,74.00
2022-08-18T01:35:17.853Z,78.57
2022-08-18T01:37:44.718Z,77.70
2022-08-18T01:41:24.730Z,77.97
2022-08-18T01:43:03.579Z,76.97
2022-08-18T01:45:33.347Z,73.10
2022-08-18T01:48:00.780Z,71.07
2022-08-18T01:50:28.240Z,69.87
2022-08-18T01:52:55.012Z,68.10
2022-08-18T01:55:22.325Z,65.63
2022-08-18T01:57:49.330Z,65.50
2022-08-18T02:00:18.207Z,67.77
2022-08-18T02:02:47.038Z,65.00
2022-08-18T02:05:33.367Z,63.37
2022-08-18T02:08:00.239Z,61.47
2022-08-18T02:10:27.662Z,61.47
2022-08-18T02:12:54.827Z,64.90
2022-08-18T02:15:21.850Z,61.20
2022-08-18T02:17:48.908Z,62.53
2022-08-18T02:20:19.034Z,59.33
2022-08-18T02:22:47.134Z,58.80
2022-08-18T02:25:14.842Z,60.40
2022-08-18T02:27:41.696Z,62.00
2022-08-18T02:30:14.060Z,61.27
2022-08-18T02:32:41.637Z,61.10
2022-08-18T02:35:11.873Z,62.43
2022-08-18T02:37:50.381Z,59.97
2022-08-18T02:40:19.114Z,60.80
2022-08-18T02:42:47.003Z,63.20
2022-08-18T02:45:14.781Z,60.70
2022-08-18T02:47:43.097Z,58.73
2022-08-18T02:50:12.789Z,57.77
2022-08-18T02:52:40.704Z,61.30
2022-08-18T02:55:08.895Z,59.20
2022-08-18T02:57:36.197Z,57.37
2022-08-18T03:00:04.475Z,60.43
2022-08-18T03:02:32.021Z,64.23
2022-08-18T03:04:58.805Z,64.07
2022-08-18T03:07:25.542Z,63.87
2022-08-18T03:09:52.241Z,62.70
2022-08-18T03:12:19.272Z,62.80
2022-08-18T03:14:46.749Z,62.30
2022-08-18T03:17:15.107Z,61.73
2022-08-18T03:19:44.936Z,60.30
2022-08-18T03:22:27.451Z,58.57
2022-08-18T03:24:55.697Z,63.37
2022-08-18T03:27:22.499Z,60.77
2022-08-18T03:29:50.216Z,63.53
2022-08-18T03:32:17.249Z,62.40
2022-08-18T03:34:44.341Z,58.50
2022-08-18T03:37:11.089Z,57.37
2022-08-18T03:39:38.263Z,58.13
2022-08-18T03:42:05.262Z,59.50
2022-08-18T03:44:36.484Z,58.77
2022-08-18T03:47:07.688Z,59.83
2022-08-18T03:49:34.541Z,57.97
2022-08-18T03:52:02.093Z,60.40
2022-08-18T03:54:31.955Z,61.77
2022-08-18T03:57:00.138Z,58.27
2022-08-18T03:59:27.529Z,59.10
2022-08-18T04:01:55.326Z,56.70
2022-08-18T04:04:25.028Z,57.90
2022-08-18T04:06:58.447Z,60.20
2022-08-18T04:09:28.160Z,61.80
2022-08-18T04:11:56.002Z,62.70
2022-08-18T04:14:25.273Z,61.50
2022-08-18T04:16:53.128Z,63.43
2022-08-18T04:19:26.570Z,58.10
2022-08-18T04:21:56.009Z,65.00
2022-08-18T04:24:23.204Z,63.13
2022-08-18T04:26:50.639Z,63.90
2022-08-18T04:29:21.635Z,58.70
2022-08-18T04:31:50.311Z,48.77
2022-08-18T04:34:20.719Z,40.80
2022-08-18T04:36:47.913Z,32.83
2022-08-18T04:39:14.703Z,35.00
2022-08-18T04:41:43.635Z,33.00
2022-08-18T04:44:12.503Z,33.17
2022-08-18T04:46:42.521Z,33.20
2022-08-18T04:49:11.251Z,35.60
2022-08-18T04:52:30.836Z,32.73
2022-08-18T04:54:28.711Z,34.90
2022-08-18T04:56:55.695Z,33.60
2022-08-18T04:59:22.529Z,35.30
2022-08-18T05:01:49.271Z,33.63
2022-08-18T05:04:17.705Z,32.10
2022-08-18T05:06:45.518Z,33.67
2022-08-18T05:09:16.561Z,35.93
2022-08-18T05:11:44.852Z,35.23
2022-08-18T05:14:12.338Z,33.67
2022-08-18T05:16:48.298Z,34.97
2022-08-18T05:19:19.751Z,34.27
2022-08-18T05:21:51.289Z,33.20
2022-08-18T05:24:19.478Z,33.03
2022-08-18T05:26:46.594Z,31.70
2022-08-18T05:29:19.070Z,31.93
2022-08-18T05:31:47.058Z,31.70
2022-08-18T05:34:13.860Z,32.20
2022-08-18T05:36:59.034Z,34.30
2022-08-18T05:39:32.352Z,30.80
2022-08-18T05:42:30.690Z,28.60
2022-08-18T05:44:57.627Z,30.47
2022-08-18T05:47:30.347Z,30.90
2022-08-18T05:50:03.970Z,29.47
2022-08-18T05:52:43.645Z,30.57
2022-08-18T05:55:36.601Z,28.97
2022-08-18T05:58:12.689Z,30.40
2022-08-18T06:00:40.946Z,26.93
2022-08-18T06:03:19.293Z,28.23
2022-08-18T06:06:01.258Z,25.57
2022-08-18T06:08:36.748Z,24.63
2022-08-18T06:11:04.034Z,24.17
2022-08-18T06:13:36.803Z,21.70
2022-08-18T06:16:27.955Z,22.00
2022-08-18T06:19:09.762Z,21.53
2022-08-18T06:21:39.132Z,22.23
2022-08-18T06:24:35.348Z,19.13
2022-08-18T06:27:26.948Z,18.67
2022-08-18T06:29:53.621Z,20.17
2022-08-18T06:32:35.399Z,18.80
2022-08-18T06:35:33.425Z,17.03
2022-08-18T06:38:36.718Z,17.83
2022-08-18T06:41:42.379Z,17.97
2022-08-18T06:44:31.723Z,17.13
2022-08-18T06:47:09.106Z,16.07
2022-08-18T06:49:51.297Z,16.53
2022-08-18T06:52:30.351Z,16.43
2022-08-18T06:55:00.569Z,15.50
2022-08-18T06:57:38.140Z,15.47
2022-08-18T07:00:08.129Z,15.43
2022-08-18T07:02:48.395Z,14.70
2022-08-18T07:05:15.070Z,14.93
2022-08-18T07:07:43.391Z,13.77
2022-08-18T07:10:16.294Z,13.50
2022-08-18T07:12:43.966Z,13.70
2022-08-18T07:15:13.431Z,14.63
2022-08-18T07:17:42.286Z,14.80
2022-08-18T07:20:25.134Z,13.80
2022-08-18T07:22:53.354Z,15.47
2022-08-18T07:25:25.139Z,13.60
2022-08-18T07:27:56.073Z,12.63
2022-08-18T07:30:27.715Z,12.83
2022-08-18T07:33:00.388Z,13.53
2022-08-18T07:36:03.287Z,12.67
2022-08-18T07:38:43.214Z,11.27
2022-08-18T07:41:20.714Z,13.37
2022-08-18T07:43:53.459Z,11.93
2022-08-18T07:46:43.806Z,12.00
2022-08-18T07:49:22.196Z,10.47
2022-08-18T07:52:36.437Z,12.07
2022-08-18T07:55:35.671Z,10.50
2022-08-18T07:58:18.848Z,9.30
2022-08-18T08:01:07.877Z,8.83
2022-08-18T08:04:00.713Z,9.30
2022-08-18T08:06:38.791Z,9.13
2022-08-18T08:09:05.492Z,8.27
2022-08-18T08:12:00.731Z,8.70
2022-08-18T08:14:55.510Z,8.30
2022-08-18T08:17:34.078Z,8.40
2022-08-18T08:20:20.173Z,8.40
2022-08-18T08:23:00.603Z,8.70
2022-08-18T08:25:58.776Z,10.00
2022-08-18T08:28:37.051Z,8.70
2022-08-18T08:31:36.565Z,8.63
2022-08-18T08:34:17.976Z,9.30
2022-08-18T08:36:47.448Z,8.00
2022-08-18T08:39:39.659Z,8.40
2022-08-18T08:42:31.929Z,8.80
2022-08-18T08:45:00.966Z,8.30
2022-08-18T08:47:44.045Z,8.63
2022-08-18T08:50:17.176Z,8.07
2022-08-18T08:52:56.700Z,8.80
2022-08-18T08:55:28.367Z,7.57
2022-08-18T08:58:19.177Z,8.23
2022-08-18T09:00:47.395Z,7.83
2022-08-18T09:03:49.384Z,7.97
2022-08-18T09:06:36.608Z,7.10
2022-08-18T09:09:16.332Z,9.43
2022-08-18T09:12:09.284Z,8.67
2022-08-18T09:14:41.926Z,8.33
2022-08-18T09:17:45.361Z,7.83
2022-08-18T09:20:49.884Z,7.90
2022-08-18T09:23:23.829Z,9.23
2022-08-18T09:25:56.490Z,7.97
2022-08-18T09:28:29.252Z,8.93
2022-08-18T09:31:01.656Z,8.77
2022-08-18T09:33:41.010Z,9.80
2022-08-18T09:36:33.590Z,8.80
2022-08-18T09:39:31.603Z,9.47
2022-08-18T09:42:30.035Z,9.07
2022-08-18T09:45:53.155Z,9.37
2022-08-18T09:48:29.135Z,9.80
2022-08-18T09:51:34.064Z,10.20
2022-08-18T09:54:13.795Z,10.03
2022-08-18T09:56:55.464Z,9.47
2022-08-18T09:59:46.100Z,9.00
2022-08-18T10:05:31.712Z,8.80
2022-08-18T10:08:14.550Z,8.83
2022-08-18T10:14:23.365Z,9.10
2022-08-18T10:17:23.457Z,9.20
2022-08-18T10:20:28.627Z,8.67
2022-08-18T10:22:56.585Z,9.13
2022-08-18T10:25:38.272Z,7.97
2022-08-18T10:28:08.378Z,9.10
2022-08-18T10:30:57.286Z,7.50
2022-08-18T10:34:15.728Z,7.90
2022-08-18T10:36:58.847Z,8.57
2022-08-18T10:39:42.298Z,7.90
2022-08-18T10:42:23.286Z,8.60
2022-08-18T10:45:11.775Z,8.00
2022-08-18T10:47:38.819Z,7.53
2022-08-18T10:50:18.303Z,9.10
2022-08-18T10:53:38.562Z,8.40
2022-08-18T10:56:28.278Z,8.10
2022-08-18T10:59:28.274Z,8.30
2022-08-18T11:02:32.306Z,8.67
2022-08-18T11:05:11.518Z,9.93
2022-08-18T11:07:43.013Z,9.17
2022-08-18T11:10:32.195Z,9.23
2022-08-18T11:13:24.120Z,6.93
2022-08-18T11:16:10.249Z,7.87
2022-08-18T11:18:53.054Z,7.40
2022-08-18T11:21:41.794Z,7.30
2022-08-18T11:24:26.498Z,8.27
2022-08-18T11:26:57.569Z,7.20
2022-08-18T11:29:40.437Z,7.17
2022-08-18T11:32:30.007Z,7.67
2022-08-18T11:35:01.666Z,6.63
2022-08-18T11:37:55.566Z,6.80
2022-08-18T11:43:41.260Z,6.80
2022-08-18T11:49:33.448Z,7.07
2022-08-18T11:52:06.526Z,6.10
2022-08-18T11:54:39.479Z,6.17
2022-08-18T11:57:46.407Z,5.80
2022-08-18T12:00:43.213Z,5.77
2022-08-18T12:03:19.366Z,5.73
2022-08-18T12:06:09.909Z,5.33
2022-08-18T12:08:59.114Z,5.40
2022-08-18T12:11:30.376Z,4.70
2022-08-18T12:14:31.667Z,4.90
2022-08-18T12:17:01.758Z,5.00
2022-08-18T12:19:30.780Z,4.80
2022-08-18T12:22:00.105Z,5.17
2022-08-18T12:24:34.628Z,5.07
2022-08-18T12:27:21.048Z,5.87
2022-08-18T12:29:57.487Z,5.70
2022-08-18T12:35:13.232Z,5.50
2022-08-18T12:40:30.687Z,5.27
2022-08-18T12:42:57.818Z,5.50
2022-08-18T12:45:27.075Z,5.33
2022-08-18T12:47:54.381Z,5.07
2022-08-18T12:50:21.075Z,6.20
2022-08-18T12:52:58.762Z,5.57
2022-08-18T12:55:26.661Z,5.10
2022-08-18T12:57:53.975Z,4.87
2022-08-18T13:00:28.142Z,5.50
2022-08-18T13:02:56.780Z,5.37
2022-08-18T13:05:27.429Z,4.97
2022-08-18T13:08:00.397Z,5.90
2022-08-18T13:10:46.012Z,4.67
2022-08-18T13:13:16.446Z,4.80
2022-08-18T13:15:55.541Z,4.73
2022-08-18T13:18:28.666Z,4.83
2022-08-18T13:21:00.361Z,4.20
2022-08-18T13:23:27.790Z,4.10
2022-08-18T13:26:01.439Z,4.53
2022-08-18T13:28:30.850Z,4.10
2022-08-18T13:31:04.135Z,4.43
2022-08-18T13:33:53.511Z,4.03
2022-08-18T13:36:20.072Z,3.90
2022-08-18T13:38:52.359Z,3.93
2022-08-18T13:41:23.429Z,4.50
2022-08-18T13:43:52.345Z,3.77
2022-08-18T13:46:29.937Z,3.60
2022-08-18T13:49:03.100Z,3.77
2022-08-18T13:51:31.176Z,3.97
2022-08-18T13:54:18.321Z,3.63
2022-08-18T13:56:51.630Z,3.80
2022-08-18T13:59:21.865Z,4.07
2022-08-18T14:01:52.874Z,3.57
2022-08-18T14:04:22.783Z,3.30
2022-08-18T14:06:57.424Z,3.57
2022-08-18T14:09:27.877Z,3.90
2022-08-18T14:12:16.042Z,3.90
2022-08-18T14:14:52.059Z,3.70
2022-08-18T14:17:22.530Z,3.90
2022-08-18T14:20:15.282Z,4.00
2022-08-18T14:23:09.626Z,4.20
2022-08-18T14:25:55.204Z,3.53
2022-08-18T14:28:24.803Z,3.90
2022-08-18T14:30:54.927Z,3.93
2022-08-18T14:33:51.013Z,3.90
2022-08-18T14:36:10.153Z,3.23
2022-08-18T14:38:36.906Z,4.30
2022-08-18T14:41:08.711Z,3.80
2022-08-18T14:44:04.539Z,3.60
2022-08-18T14:46:24.959Z,3.67
2022-08-18T14:48:57.285Z,3.60
2022-08-18T14:51:27.209Z,3.67
2022-08-18T14:53:54.467Z,3.77
2022-08-18T14:56:28.418Z,4.20
2022-08-18T14:58:55.957Z,3.37
2022-08-18T15:01:24.425Z,3.97
2022-08-18T15:03:51.333Z,2.97
2022-08-18T15:06:22.916Z,3.60
2022-08-18T15:08:53.989Z,3.83
2022-08-18T15:11:23.930Z,3.50
2022-08-18T15:13:51.507Z,3.63
2022-08-18T15:16:22.469Z,3.53
2022-08-18T15:18:58.215Z,4.80
2022-08-18T15:21:43.439Z,5.60
2022-08-18T15:24:28.973Z,3.90
2022-08-18T15:26:58.276Z,3.87
2022-08-18T15:29:33.033Z,3.73
2022-08-18T15:32:05.841Z,4.37
2022-08-18T15:34:46.415Z,3.67
2022-08-18T15:37:19.509Z,3.57
2022-08-18T15:39:51.937Z,3.67
2022-08-18T15:42:23.447Z,3.80
2022-08-18T15:44:50.386Z,3.33
2022-08-18T15:47:20.702Z,3.60
2022-08-18T15:49:48.088Z,3.67
2022-08-18T15:52:17.862Z,3.77
2022-08-18T15:54:50.404Z,3.87
2022-08-18T15:57:38.463Z,4.33
2022-08-18T16:00:05.866Z,3.90
2022-08-18T16:02:32.551Z,3.23
2022-08-18T16:05:10.490Z,4.00
2022-08-18T16:07:53.723Z,3.90
2022-08-18T16:10:22.496Z,3.73
2022-08-18T16:12:50.134Z,3.40
2022-08-18T16:15:26.601Z,3.60
2022-08-18T16:17:55.366Z,3.13
2022-08-18T16:20:26.178Z,3.53
2022-08-18T16:22:53.536Z,3.77
2022-08-18T16:25:21.037Z,3.83
2022-08-18T16:27:47.950Z,3.40
2022-08-18T16:30:19.321Z,3.07
2022-08-18T16:32:47.425Z,4.37
2022-08-18T16:35:15.122Z,3.47
2022-08-18T16:37:42.044Z,4.03
2022-08-18T16:40:09.212Z,3.70
2022-08-18T16:42:36.578Z,3.40
2022-08-18T16:45:05.641Z,4.10
2022-08-18T16:47:38.834Z,4.60
2022-08-18T16:50:11.987Z,3.93
2022-08-18T16:52:39.703Z,4.27
2022-08-18T16:55:07.520Z,4.17
2022-08-18T16:57:53.979Z,4.97
2022-08-18T17:00:41.660Z,4.40
2022-08-18T17:03:27.900Z,4.47
2022-08-18T17:06:06.804Z,4.27
2022-08-18T17:08:34.359Z,4.67
2022-08-18T17:11:02.252Z,4.60
2022-08-18T17:13:29.696Z,3.90
2022-08-18T17:15:56.688Z,4.67
2022-08-18T17:18:24.465Z,4.33
2022-08-18T17:20:52.258Z,4.20
2022-08-18T17:23:22.325Z,4.20
2022-08-18T17:25:49.815Z,5.40
2022-08-18T17:28:25.850Z,4.77
2022-08-18T17:30:53.261Z,5.77
2022-08-18T17:33:26.168Z,5.03
2022-08-18T17:35:54.069Z,4.07
2022-08-18T17:38:32.408Z,4.07
2022-08-18T17:41:00.116Z,4.13
2022-08-18T17:43:35.244Z,4.10
2022-08-18T17:46:09.669Z,3.90
2022-08-18T17:48:45.869Z,5.17
2022-08-18T17:51:34.934Z,4.97
2022-08-18T17:54:22.016Z,4.70
2022-08-18T17:56:53.943Z,5.10
2022-08-18T17:59:46.344Z,5.60
2022-08-18T18:02:29.652Z,4.00
2022-08-18T18:05:03.544Z,4.53
2022-08-18T18:07:38.299Z,3.93
2022-08-18T18:10:14.232Z,4.20
2022-08-18T18:12:41.395Z,4.30
2022-08-18T18:15:11.789Z,3.63
2022-08-18T18:17:40.659Z,4.70
2022-08-18T18:20:41.517Z,4.37
2022-08-18T18:23:20.886Z,4.27
2022-08-18T18:25:47.590Z,4.03
2022-08-18T18:28:30.905Z,4.03
2022-08-18T18:31:16.235Z,3.97
2022-08-18T18:33:43.835Z,4.23
2022-08-18T18:36:11.388Z,3.93
2022-08-18T18:38:46.031Z,4.20
2022-08-18T18:41:12.633Z,4.10
2022-08-18T18:43:43.475Z,3.80
2022-08-18T18:46:24.741Z,3.43
2022-08-18T18:49:10.058Z,4.20
2022-08-18T18:51:43.750Z,4.10
2022-08-18T18:54:35.292Z,3.70
2022-08-18T18:57:10.880Z,3.57
2022-08-18T19:00:19.661Z,3.90
2022-08-18T19:02:58.262Z,5.40
2022-08-18T19:05:32.787Z,4.43
2022-08-18T19:08:05.964Z,4.07
2022-08-18T19:10:45.377Z,4.40
2022-08-18T19:13:32.233Z,4.83
2022-08-18T19:16:24.193Z,4.87
2022-08-18T19:19:38.245Z,5.33
2022-08-18T19:22:34.720Z,5.50
2022-08-18T19:25:22.693Z,5.20
2022-08-18T19:27:58.109Z,5.60
2022-08-18T19:30:25.589Z,5.33
2022-08-18T19:32:55.557Z,5.70
2022-08-18T19:35:35.211Z,4.90
2022-08-18T19:38:36.599Z,5.13
2022-08-18T19:41:19.826Z,5.20
2022-08-18T19:43:55.952Z,4.70
2022-08-18T19:46:34.608Z,4.57
2022-08-18T19:49:23.580Z,4.83
2022-08-18T19:51:56.837Z,4.90
2022-08-18T19:54:53.649Z,4.77
2022-08-18T19:57:58.831Z,4.83
2022-08-18T20:00:52.235Z,4.00
2022-08-18T20:03:47.742Z,5.23
2022-08-18T20:06:36.584Z,5.30
2022-08-18T20:09:34.134Z,5.10
2022-08-18T20:12:06.767Z,5.73
2022-08-18T20:14:36.814Z,5.30
2022-08-18T20:17:09.551Z,5.33
2022-08-18T20:19:46.709Z,5.47
2022-08-18T20:22:22.025Z,5.40
2022-08-18T20:24:53.884Z,5.63
2022-08-18T20:27:27.388Z,5.63
2022-08-18T20:30:19.704Z,5.13
2022-08-18T20:33:13.177Z,5.83
2022-08-18T20:35:47.016Z,5.63
2022-08-18T20:38:28.378Z,6.00
2022-08-18T20:40:55.771Z,5.97
2022-08-18T20:43:34.287Z,5.77
2022-08-18T20:46:21.231Z,6.43
2022-08-18T20:49:15.725Z,6.13
2022-08-18T20:51:52.131Z,6.30
2022-08-18T20:54:32.658Z,7.07
2022-08-18T20:57:02.529Z,6.43
2022-08-18T20:59:33.165Z,6.20
2022-08-18T21:02:07.330Z,7.07
2022-08-18T21:04:49.024Z,7.23
2022-08-18T21:07:35.993Z,6.07
2022-08-18T21:10:17.754Z,6.73
2022-08-18T21:12:54.219Z,6.33
2022-08-18T21:15:28.520Z,6.17
2022-08-18T21:18:00.607Z,6.63
2022-08-18T21:20:28.306Z,6.90
2022-08-18T21:23:26.132Z,6.63
2022-08-18T21:25:56.051Z,5.93
2022-08-18T21:28:26.814Z,6.27
2022-08-18T21:31:29.130Z,5.70
2022-08-18T21:33:50.465Z,7.40
2022-08-18T21:36:19.122Z,6.63
2022-08-18T21:39:06.101Z,7.47
2022-08-18T21:41:39.113Z,6.93
2022-08-18T21:44:21.942Z,6.80
2022-08-18T21:46:49.865Z,6.47
2022-08-18T21:49:28.201Z,6.30
2022-08-18T21:51:54.860Z,6.20
2022-08-18T21:54:24.678Z,6.30
2022-08-18T21:57:18.314Z,6.70
2022-08-18T22:00:12.840Z,6.67
2022-08-18T22:02:39.735Z,7.50
2022-08-18T22:05:08.739Z,6.93
2022-08-18T22:07:35.690Z,7.00
2022-08-18T22:10:26.092Z,6.73
2022-08-18T22:13:30.550Z,6.30
2022-08-18T22:15:58.373Z,6.43
2022-08-18T22:18:35.458Z,6.47
2022-08-18T22:21:03.414Z,6.90
2022-08-18T22:24:02.529Z,7.67
2022-08-18T22:26:30.400Z,7.50
2022-08-18T22:29:05.723Z,6.70
2022-08-18T22:31:38.409Z,6.50
2022-08-18T22:34:09.219Z,7.60
2022-08-18T22:36:40.751Z,6.60
2022-08-18T22:39:10.677Z,6.60
2022-08-18T22:41:38.472Z,7.00
2022-08-18T22:44:06.297Z,6.40
2022-08-18T22:46:33.706Z,6.90
2022-08-18T22:49:00.953Z,5.97
2022-08-18T22:51:28.554Z,6.73
2022-08-18T22:53:57.037Z,5.83
2022-08-18T22:56:34.677Z,6.57
2022-08-18T22:59:15.632Z,6.10
2022-08-18T23:01:48.822Z,6.37
2022-08-18T23:04:17.853Z,6.70
2022-08-18T23:06:51.363Z,6.83
2022-08-18T23:09:20.622Z,6.27
2022-08-18T23:11:47.314Z,6.90
2022-08-18T23:14:14.142Z,6.70
2022-08-18T23:16:45.168Z,7.20
2022-08-18T23:19:14.208Z,8.20
2022-08-18T23:21:41.575Z,7.87
2022-08-18T23:24:10.586Z,7.60
2022-08-18T23:26:37.406Z,8.00
2022-08-18T23:29:05.549Z,8.60
2022-08-18T23:31:33.277Z,7.87
2022-08-18T23:34:00.731Z,7.70
2022-08-18T23:36:31.927Z,7.97
2022-08-18T23:38:58.707Z,8.20
2022-08-18T23:41:25.660Z,7.93
2022-08-18T23:43:52.678Z,7.37
2022-08-18T23:46:25.521Z,7.63
2022-08-18T23:48:52.733Z,8.00
2022-08-18T23:51:45.027Z,8.47
2022-08-18T23:54:18.919Z,7.50
2022-08-18T23:56:46.524Z,8.10
2022-08-18T23:59:14.483Z,7.97
